createdAt,value
2022-09-14T00:00:19.873Z,0.90
2022-09-14T00:02:49.853Z,0.90
2022-09-14T00:05:19.761Z,1.52
2022-09-14T00:07:50.148Z,1.30
2022-09-14T00:10:20.966Z,1.20
2022-09-14T00:12:50.690Z,0.73
2022-09-14T00:15:20.179Z,1.27
2022-09-14T00:17:49.911Z,1.10
2022-09-14T00:20:19.649Z,1.04
2022-09-14T00:22:49.406Z,0.90
2022-09-14T00:25:19.157Z,0.88
2022-09-14T00:27:48.903Z,0.80
2022-09-14T00:30:18.547Z,0.80
2022-09-14T00:32:48.541Z,0.90
2022-09-14T00:35:19.136Z,0.98
2022-09-14T00:37:51.183Z,1.37
2022-09-14T00:40:21.150Z,0.90
2022-09-14T00:42:50.876Z,1.17
2022-09-14T00:45:22.553Z,0.80
2022-09-14T00:47:54.557Z,1.02
2022-09-14T00:50:24.519Z,0.97
2022-09-14T00:52:56.203Z,0.90
2022-09-14T00:55:26.455Z,1.07
2022-09-14T00:57:56.329Z,0.80
2022-09-14T01:00:28.245Z,0.90
2022-09-14T01:02:58.213Z,0.80
2022-09-14T01:05:33.800Z,0.70
2022-09-14T01:08:11.758Z,0.75
2022-09-14T01:10:53.251Z,0.60
2022-09-14T01:13:39.645Z,0.70
2022-09-14T01:16:18.949Z,0.78
2022-09-14T01:18:54.436Z,1.07
2022-09-14T01:21:27.522Z,1.02
2022-09-14T01:24:03.122Z,1.20
2022-09-14T01:26:52.609Z,1.10
2022-09-14T01:29:25.689Z,0.62
2022-09-14T01:32:06.447Z,0.90
2022-09-14T01:34:42.099Z,0.62
2022-09-14T01:37:34.138Z,1.17
2022-09-14T01:40:08.067Z,1.10
2022-09-14T01:42:40.394Z,0.80
2022-09-14T01:45:12.600Z,1.00
2022-09-14T01:47:53.810Z,1.10
2022-09-14T01:50:31.123Z,1.20
2022-09-14T01:53:03.925Z,0.87
2022-09-14T01:55:39.379Z,1.27
2022-09-14T01:58:26.689Z,0.90
2022-09-14T02:00:59.036Z,0.78
2022-09-14T02:03:32.578Z,0.80
2022-09-14T02:06:14.448Z,0.93
2022-09-14T02:08:44.275Z,1.17
2022-09-14T02:11:14.143Z,0.83
2022-09-14T02:13:44.129Z,1.07
2022-09-14T02:16:14.143Z,0.90
2022-09-14T02:18:43.862Z,1.10
2022-09-14T02:21:16.641Z,1.40
2022-09-14T02:23:49.079Z,1.32
2022-09-14T02:26:22.104Z,0.77
2022-09-14T02:28:53.732Z,1.00
2022-09-14T02:31:48.307Z,1.10
2022-09-14T02:34:20.789Z,0.90
2022-09-14T02:36:56.412Z,1.13
2022-09-14T02:39:31.927Z,1.23
2022-09-14T02:42:31.311Z,1.20
2022-09-14T02:45:10.162Z,1.67
2022-09-14T02:48:02.661Z,1.37
2022-09-14T02:50:37.574Z,1.02
2022-09-14T02:53:19.107Z,1.00
2022-09-14T02:58:46.055Z,1.57
2022-09-14T03:01:19.215Z,1.30
2022-09-14T03:03:49.268Z,1.10
2022-09-14T03:06:19.006Z,0.90
2022-09-14T03:08:49.459Z,0.90
2022-09-14T03:11:19.054Z,1.30
2022-09-14T03:13:48.789Z,1.13
2022-09-14T03:16:20.218Z,0.70
2022-09-14T03:18:50.044Z,1.07
2022-09-14T03:21:20.058Z,1.30
2022-09-14T03:23:52.264Z,0.83
2022-09-14T03:26:24.234Z,1.13
2022-09-14T03:28:56.601Z,1.50
2022-09-14T03:31:27.285Z,0.83
2022-09-14T03:33:59.412Z,1.17
2022-09-14T03:36:30.580Z,1.10
2022-09-14T03:39:02.050Z,1.10
2022-09-14T03:41:32.035Z,1.00
2022-09-14T03:44:01.630Z,0.90
2022-09-14T03:46:31.448Z,1.30
2022-09-14T03:49:01.194Z,1.10
2022-09-14T03:51:30.996Z,1.20
2022-09-14T03:54:01.044Z,1.47
2022-09-14T03:56:31.019Z,1.20
2022-09-14T03:59:00.878Z,1.20
2022-09-14T04:01:32.655Z,1.07
2022-09-14T04:04:02.536Z,1.87
2022-09-14T04:06:32.662Z,1.37
2022-09-14T04:09:02.374Z,0.93
2022-09-14T04:11:33.819Z,1.00
2022-09-14T04:14:04.755Z,1.20
2022-09-14T04:16:34.557Z,1.13
2022-09-14T04:19:04.471Z,1.10
2022-09-14T04:21:34.642Z,1.97
2022-09-14T04:24:15.273Z,0.97
2022-09-14T04:26:36.095Z,1.10
2022-09-14T04:29:06.465Z,1.27
2022-09-14T04:31:36.537Z,1.33
2022-09-14T04:34:06.499Z,1.75
2022-09-14T04:36:36.220Z,1.53
2022-09-14T04:39:06.983Z,1.57
2022-09-14T04:41:36.716Z,1.43
2022-09-14T04:44:07.976Z,1.30
2022-09-14T04:46:45.084Z,1.23
2022-09-14T04:49:11.069Z,1.05
2022-09-14T04:51:40.623Z,1.45
2022-09-14T04:54:14.814Z,1.42
2022-09-14T04:56:44.785Z,1.30
2022-09-14T04:59:15.517Z,1.03
2022-09-14T05:01:48.031Z,1.50
2022-09-14T05:04:18.275Z,1.30
2022-09-14T05:06:48.101Z,1.00
2022-09-14T05:09:19.732Z,1.50
2022-09-14T05:11:51.112Z,1.50
2022-09-14T05:14:20.542Z,1.17
2022-09-14T05:16:50.569Z,1.80
2022-09-14T05:19:20.314Z,1.30
2022-09-14T05:21:50.049Z,1.07
2022-09-14T05:24:20.344Z,1.00
2022-09-14T05:26:58.215Z,1.33
2022-09-14T05:29:25.151Z,1.20
2022-09-14T05:31:54.906Z,0.87
2022-09-14T05:34:24.696Z,1.35
2022-09-14T05:36:54.429Z,1.10
2022-09-14T05:39:25.215Z,1.05
2022-09-14T05:41:55.030Z,1.50
2022-09-14T05:44:24.810Z,1.10
2022-09-14T05:46:54.551Z,1.17
2022-09-14T05:49:25.143Z,0.97
2022-09-14T05:51:54.878Z,1.13
2022-09-14T05:54:24.975Z,1.87
2022-09-14T05:56:54.700Z,1.37
2022-09-14T05:59:24.434Z,1.10
2022-09-14T06:01:54.231Z,1.20
2022-09-14T06:04:24.033Z,1.60
2022-09-14T06:07:14.832Z,0.97
2022-09-14T06:09:28.002Z,1.30
2022-09-14T06:11:56.906Z,1.50
2022-09-14T06:14:26.827Z,1.67
2022-09-14T06:16:56.574Z,1.63
2022-09-14T06:19:26.617Z,2.30
2022-09-14T06:21:56.646Z,1.30
2022-09-14T06:24:26.149Z,1.12
2022-09-14T06:26:55.889Z,1.60
2022-09-14T06:29:25.691Z,1.40
2022-09-14T06:31:55.836Z,1.37
2022-09-14T06:34:25.631Z,1.50
2022-09-14T06:36:55.431Z,1.90
2022-09-14T06:39:24.877Z,1.80
2022-09-14T06:41:54.611Z,2.40
2022-09-14T06:44:24.106Z,2.67
2022-09-14T06:46:53.847Z,2.93
2022-09-14T06:49:23.654Z,3.50
2022-09-14T06:51:55.016Z,3.17
2022-09-14T06:54:25.362Z,3.12
2022-09-14T06:56:55.242Z,2.60
2022-09-14T06:59:25.281Z,3.20
2022-09-14T07:01:55.109Z,2.40
2022-09-14T07:04:25.025Z,2.77
2022-09-14T07:06:54.770Z,2.83
2022-09-14T07:09:25.046Z,2.80
2022-09-14T07:11:54.787Z,3.17
2022-09-14T07:14:24.547Z,3.05
2022-09-14T07:16:54.054Z,2.75
2022-09-14T07:19:24.091Z,2.92
2022-09-14T07:21:54.613Z,3.33
2022-09-14T07:24:24.244Z,3.33
2022-09-14T07:26:53.982Z,3.60
2022-09-14T07:29:23.705Z,3.30
2022-09-14T07:31:54.917Z,3.10
2022-09-14T07:34:25.331Z,3.37
2022-09-14T07:36:55.072Z,3.03
2022-09-14T07:39:25.096Z,3.17
2022-09-14T07:41:55.145Z,3.03
2022-09-14T07:44:24.967Z,2.52
2022-09-14T07:46:54.799Z,3.10
2022-09-14T07:49:24.254Z,2.60
2022-09-14T07:51:54.853Z,2.67
2022-09-14T07:54:24.566Z,2.30
2022-09-14T07:56:54.889Z,1.90
2022-09-14T07:59:35.673Z,2.10
2022-09-14T08:01:56.885Z,2.00
2022-09-14T08:04:26.045Z,1.70
2022-09-14T08:06:55.059Z,1.77
2022-09-14T08:09:24.081Z,1.60
2022-09-14T08:11:53.109Z,1.90
2022-09-14T08:14:22.105Z,1.60
2022-09-14T08:16:51.188Z,1.37
2022-09-14T08:19:20.822Z,2.12
2022-09-14T08:21:50.989Z,1.90
2022-09-14T08:24:22.613Z,1.98
2022-09-14T08:26:51.701Z,1.90
2022-09-14T08:29:22.290Z,1.93
2022-09-14T08:31:52.186Z,2.20
2022-09-14T08:34:21.696Z,2.10
2022-09-14T08:36:50.455Z,1.80
2022-09-14T08:39:21.058Z,2.47
2022-09-14T08:41:59.986Z,2.77
2022-09-14T08:44:35.366Z,3.15
2022-09-14T08:47:10.140Z,3.37
2022-09-14T08:49:54.369Z,3.05
2022-09-14T08:52:50.426Z,3.10
2022-09-14T08:55:37.000Z,2.23
2022-09-14T08:58:20.950Z,2.77
2022-09-14T09:00:55.732Z,2.05
2022-09-14T09:03:36.848Z,2.90
2022-09-14T09:06:25.088Z,2.50
2022-09-14T09:09:03.394Z,2.30
2022-09-14T09:11:35.470Z,2.40
2022-09-14T09:14:07.901Z,2.60
2022-09-14T09:16:39.337Z,2.80
2022-09-14T09:19:11.420Z,2.70
2022-09-14T09:21:45.932Z,2.70
2022-09-14T09:24:25.301Z,2.05
2022-09-14T09:26:54.337Z,2.57
2022-09-14T09:29:23.709Z,2.63
2022-09-14T09:32:21.805Z,2.05
2022-09-14T09:35:11.023Z,2.10
2022-09-14T09:37:51.574Z,1.90
2022-09-14T09:40:32.850Z,2.08
2022-09-14T09:43:11.811Z,2.27
2022-09-14T09:46:02.902Z,1.80
2022-09-14T09:48:40.532Z,1.43
2022-09-14T09:51:13.933Z,1.60
2022-09-14T09:54:08.254Z,1.30
2022-09-14T09:56:43.769Z,1.92
2022-09-14T09:59:31.401Z,2.00
2022-09-14T10:02:23.583Z,1.40
2022-09-14T10:05:11.912Z,1.60
2022-09-14T10:07:53.868Z,2.27
2022-09-14T10:10:26.865Z,1.80
2022-09-14T10:12:58.066Z,1.85
2022-09-14T10:15:37.522Z,1.83
2022-09-14T10:18:16.073Z,1.83
2022-09-14T10:20:58.763Z,1.80
2022-09-14T10:23:30.794Z,1.67
2022-09-14T10:26:15.169Z,2.07
2022-09-14T10:28:46.754Z,2.10
2022-09-14T10:31:31.349Z,2.30
2022-09-14T10:34:01.312Z,2.20
2022-09-14T10:36:37.332Z,1.95
2022-09-14T10:39:25.434Z,2.10
2022-09-14T10:42:00.319Z,2.30
2022-09-14T10:47:41.711Z,1.90
2022-09-14T10:50:27.536Z,1.93
2022-09-14T10:53:19.686Z,2.10
2022-09-14T10:56:16.291Z,1.80
2022-09-14T10:59:20.985Z,2.30
2022-09-14T11:02:20.595Z,2.10
2022-09-14T11:05:17.782Z,1.62
2022-09-14T11:08:02.149Z,1.83
2022-09-14T11:10:54.113Z,2.20
2022-09-14T11:13:42.939Z,2.00
2022-09-14T11:16:33.120Z,1.90
2022-09-14T11:19:11.782Z,2.40
2022-09-14T11:21:53.300Z,2.00
2022-09-14T11:24:26.544Z,1.70
2022-09-14T11:27:11.018Z,1.70
2022-09-14T11:29:49.254Z,1.60
2022-09-14T11:32:24.905Z,1.80
2022-09-14T11:35:00.176Z,1.83
2022-09-14T11:40:21.274Z,1.75
2022-09-14T11:42:54.363Z,1.72
2022-09-14T11:45:30.071Z,1.20
2022-09-14T11:48:03.044Z,1.60
2022-09-14T11:50:33.904Z,1.50
2022-09-14T11:53:06.973Z,1.62
2022-09-14T11:55:40.230Z,1.20
2022-09-14T11:58:18.839Z,1.47
2022-09-14T12:00:54.594Z,1.40
2022-09-14T12:03:27.740Z,1.20
2022-09-14T12:05:59.404Z,1.10
2022-09-14T12:08:38.014Z,1.10
2022-09-14T12:11:13.657Z,1.47
2022-09-14T12:13:43.607Z,1.57
2022-09-14T12:16:14.697Z,1.73
2022-09-14T12:18:46.999Z,1.50
2022-09-14T12:21:28.613Z,1.80
2022-09-14T12:23:59.367Z,1.10
2022-09-14T12:26:34.697Z,1.30
2022-09-14T12:29:07.629Z,1.23
2022-09-14T12:31:43.226Z,1.20
2022-09-14T12:34:24.028Z,1.18
2022-09-14T12:36:57.881Z,1.23
2022-09-14T12:39:35.484Z,1.63
2022-09-14T12:42:25.456Z,1.30
2022-09-14T12:44:55.612Z,1.20
2022-09-14T12:47:31.384Z,1.70
2022-09-14T12:50:18.868Z,1.20
2022-09-14T12:53:00.890Z,1.40
2022-09-14T12:55:42.077Z,1.47
2022-09-14T12:58:36.781Z,1.65
2022-09-14T13:01:09.691Z,1.60
2022-09-14T13:03:56.805Z,1.33
2022-09-14T13:06:30.448Z,1.32
2022-09-14T13:09:00.420Z,1.32
2022-09-14T13:11:33.194Z,1.53
2022-09-14T13:14:03.850Z,1.72
2022-09-14T13:16:42.273Z,1.92
2022-09-14T13:19:26.635Z,1.83
2022-09-14T13:21:59.154Z,2.20
2022-09-14T13:24:34.749Z,1.85
2022-09-14T13:27:05.802Z,2.40
2022-09-14T13:29:35.801Z,2.10
2022-09-14T13:32:05.685Z,2.07
2022-09-14T13:34:38.515Z,2.00
2022-09-14T13:37:08.768Z,2.30
2022-09-14T13:39:41.820Z,2.65
2022-09-14T13:42:11.855Z,2.63
2022-09-14T13:44:47.043Z,3.47
2022-09-14T13:47:26.832Z,3.40
2022-09-14T13:49:57.270Z,3.10
2022-09-14T13:52:43.573Z,3.10
2022-09-14T13:55:25.190Z,2.70
2022-09-14T13:58:14.161Z,2.70
2022-09-14T14:01:03.926Z,3.53
2022-09-14T14:03:42.265Z,2.53
2022-09-14T14:06:26.670Z,3.00
2022-09-14T14:09:08.542Z,2.00
2022-09-14T14:11:40.986Z,2.10
2022-09-14T14:14:30.879Z,2.33
2022-09-14T14:17:33.155Z,1.87
2022-09-14T14:20:21.905Z,1.80
2022-09-14T14:23:00.331Z,2.37
2022-09-14T14:25:33.347Z,1.30
2022-09-14T14:28:06.123Z,1.70
2022-09-14T14:30:40.241Z,1.53
2022-09-14T14:33:20.588Z,1.60
2022-09-14T14:35:52.750Z,1.93
2022-09-14T14:38:26.424Z,1.32
2022-09-14T14:40:58.158Z,2.23
2022-09-14T14:43:29.189Z,1.77
2022-09-14T14:46:01.910Z,1.73
2022-09-14T14:48:31.741Z,1.65
2022-09-14T14:51:01.965Z,1.80
2022-09-14T14:53:31.708Z,2.33
2022-09-14T14:56:02.767Z,2.25
2022-09-14T14:58:36.255Z,1.87
2022-09-14T15:01:03.771Z,1.87
2022-09-14T15:03:33.595Z,2.17
2022-09-14T15:06:15.557Z,2.07
2022-09-14T15:08:45.312Z,2.50
2022-09-14T15:11:18.207Z,2.33
2022-09-14T15:13:48.399Z,1.90
2022-09-14T15:16:18.596Z,2.40
2022-09-14T15:18:48.379Z,2.33
2022-09-14T15:21:17.836Z,2.65
2022-09-14T15:23:47.606Z,1.97
2022-09-14T15:26:17.327Z,2.50
2022-09-14T15:28:48.522Z,1.90
2022-09-14T15:31:18.260Z,2.40
2022-09-14T15:33:48.360Z,2.22
2022-09-14T15:36:37.015Z,2.00
2022-09-14T15:39:09.058Z,2.22
2022-09-14T15:41:38.856Z,2.13
2022-09-14T15:44:09.060Z,2.47
2022-09-14T15:46:40.212Z,2.60
2022-09-14T15:49:13.253Z,2.43
2022-09-14T15:51:44.619Z,2.80
2022-09-14T15:54:15.226Z,2.18
2022-09-14T15:56:47.012Z,2.30
2022-09-14T15:59:18.583Z,1.80
2022-09-14T16:01:48.655Z,2.30
2022-09-14T16:04:18.938Z,2.20
2022-09-14T16:06:48.917Z,1.93
2022-09-14T16:09:21.237Z,2.00
2022-09-14T16:11:51.610Z,1.80
2022-09-14T16:14:21.436Z,1.50
2022-09-14T16:16:51.027Z,2.30
2022-09-14T16:19:21.538Z,2.10
2022-09-14T16:21:53.748Z,2.07
2022-09-14T16:24:24.018Z,2.23
2022-09-14T16:26:53.959Z,1.90
2022-09-14T16:29:26.869Z,1.80
2022-09-14T16:31:57.042Z,2.53
2022-09-14T16:34:29.077Z,2.47
2022-09-14T16:36:58.963Z,2.53
2022-09-14T16:39:34.330Z,1.90
2022-09-14T16:42:06.863Z,2.52
2022-09-14T16:44:36.952Z,2.72
2022-09-14T16:47:06.882Z,2.20
2022-09-14T16:49:38.329Z,2.30
2022-09-14T16:52:08.457Z,3.17
2022-09-14T16:54:38.233Z,2.13
2022-09-14T16:57:08.263Z,2.60
2022-09-14T16:59:38.772Z,2.70
2022-09-14T17:02:11.871Z,2.46
2022-09-14T17:04:41.644Z,2.47
2022-09-14T17:07:11.412Z,2.60
2022-09-14T17:09:41.219Z,2.35
2022-09-14T17:12:11.488Z,2.47
2022-09-14T17:14:42.199Z,2.70
2022-09-14T17:17:12.246Z,2.83
2022-09-14T17:19:43.821Z,2.73
2022-09-14T17:22:14.769Z,2.85
2022-09-14T17:24:44.201Z,2.67
2022-09-14T17:27:13.955Z,2.70
2022-09-14T17:29:43.848Z,2.83
2022-09-14T17:32:15.188Z,3.55
2022-09-14T17:34:45.032Z,3.53
2022-09-14T17:37:14.765Z,3.83
2022-09-14T17:39:44.536Z,4.03
2022-09-14T17:42:14.360Z,3.10
2022-09-14T17:44:44.674Z,3.57
2022-09-14T17:47:14.445Z,3.60
2022-09-14T17:49:44.511Z,3.87
2022-09-14T17:52:14.268Z,3.12
2022-09-14T17:54:44.311Z,3.70
2022-09-14T17:57:14.203Z,3.20
2022-09-14T17:59:43.964Z,3.57
2022-09-14T18:02:14.618Z,3.25
2022-09-14T18:04:48.777Z,3.37
2022-09-14T18:07:18.498Z,4.47
2022-09-14T18:09:47.973Z,3.80
2022-09-14T18:12:18.475Z,3.90
2022-09-14T18:14:48.586Z,3.27
2022-09-14T18:17:18.362Z,4.33
2022-09-14T18:19:48.099Z,4.20
2022-09-14T18:22:18.586Z,4.78
2022-09-14T18:24:48.335Z,4.63
2022-09-14T18:27:18.638Z,4.70
2022-09-14T18:29:48.552Z,5.37
2022-09-14T18:32:18.017Z,5.22
2022-09-14T18:34:47.473Z,5.00
2022-09-14T18:37:16.919Z,4.80
2022-09-14T18:39:46.798Z,5.57
2022-09-14T18:42:16.644Z,5.55
2022-09-14T18:44:46.642Z,5.30
2022-09-14T18:47:18.012Z,5.23
2022-09-14T18:49:49.397Z,5.53
2022-09-14T18:52:19.437Z,4.90
2022-09-14T18:54:48.955Z,4.95
2022-09-14T18:57:19.794Z,5.47
2022-09-14T18:59:49.608Z,5.33
2022-09-14T19:02:19.329Z,4.70
2022-09-14T19:04:49.050Z,4.60
2022-09-14T19:07:18.783Z,4.80
2022-09-14T19:09:48.580Z,5.20
2022-09-14T19:12:18.231Z,5.07
2022-09-14T19:14:47.735Z,5.05
2022-09-14T19:17:17.473Z,5.63
2022-09-14T19:19:47.222Z,4.47
2022-09-14T19:22:16.961Z,6.27
2022-09-14T19:24:46.702Z,4.83
2022-09-14T19:27:17.501Z,5.50
2022-09-14T19:29:47.616Z,5.47
2022-09-14T19:32:18.535Z,5.12
2022-09-14T19:34:49.056Z,5.43
2022-09-14T19:37:18.815Z,5.13
2022-09-14T19:39:48.589Z,5.23
2022-09-14T19:42:21.677Z,5.70
2022-09-14T19:44:49.938Z,6.30
2022-09-14T19:47:19.702Z,5.60
2022-09-14T19:49:49.908Z,6.95
2022-09-14T19:52:19.658Z,6.03
2022-09-14T19:54:49.748Z,6.30
2022-09-14T19:57:19.194Z,6.83
2022-09-14T19:59:48.924Z,6.57
2022-09-14T20:02:18.509Z,7.13
2022-09-14T20:04:48.269Z,7.47
2022-09-14T20:07:18.576Z,7.20
2022-09-14T20:09:48.329Z,6.83
2022-09-14T20:12:17.818Z,7.47
2022-09-14T20:14:47.831Z,7.30
2022-09-14T20:17:17.560Z,8.50
2022-09-14T20:19:47.608Z,7.60
2022-09-14T20:22:17.293Z,8.90
2022-09-14T20:24:47.030Z,8.53
2022-09-14T20:27:17.148Z,10.08
2022-09-14T20:29:46.883Z,9.93
2022-09-14T20:32:20.151Z,8.40
2022-09-14T20:34:47.816Z,9.80
2022-09-14T20:37:17.572Z,8.37
2022-09-14T20:39:48.834Z,9.70
2022-09-14T20:42:18.600Z,9.40
2022-09-14T20:44:48.056Z,9.70
2022-09-14T20:47:17.959Z,9.73
2022-09-14T20:49:48.863Z,10.73
2022-09-14T20:52:19.277Z,10.33
2022-09-14T20:54:49.036Z,10.33
2022-09-14T20:57:18.777Z,11.10
2022-09-14T20:59:48.816Z,11.15
2022-09-14T21:02:18.510Z,10.20
2022-09-14T21:04:48.571Z,11.30
2022-09-14T21:07:18.623Z,11.30
2022-09-14T21:09:49.020Z,9.95
2022-09-14T21:12:18.787Z,10.98
2022-09-14T21:14:48.279Z,11.85
2022-09-14T21:17:18.099Z,11.30
2022-09-14T21:19:47.844Z,11.60
2022-09-14T21:22:18.066Z,11.63
2022-09-14T21:24:47.815Z,11.50
2022-09-14T21:27:17.558Z,11.40
2022-09-14T21:29:48.049Z,12.10
2022-09-14T21:32:17.609Z,12.00
2022-09-14T21:34:47.241Z,11.78
2022-09-14T21:37:16.976Z,12.50
2022-09-14T21:39:46.809Z,12.07
2022-09-14T21:42:16.557Z,11.10
2022-09-14T21:44:46.783Z,11.65
2022-09-14T21:47:16.270Z,12.55
2022-09-14T21:49:46.018Z,12.03
2022-09-14T21:52:15.459Z,11.40
2022-09-14T21:54:45.219Z,11.90
2022-09-14T21:57:14.979Z,12.23
2022-09-14T21:59:44.719Z,11.53
2022-09-14T22:02:15.182Z,13.20
2022-09-14T22:04:44.949Z,12.73
2022-09-14T22:07:14.717Z,13.40
2022-09-14T22:09:44.781Z,13.15
2022-09-14T22:12:14.700Z,15.20
2022-09-14T22:14:44.438Z,13.33
2022-09-14T22:17:14.181Z,13.07
2022-09-14T22:19:44.822Z,13.80
2022-09-14T22:22:14.639Z,13.43
2022-09-14T22:24:44.139Z,14.45
2022-09-14T22:27:14.620Z,14.33
2022-09-14T22:29:44.934Z,14.40
2022-09-14T22:32:14.710Z,13.80
2022-09-14T22:34:49.489Z,13.00
2022-09-14T22:37:17.269Z,14.90
2022-09-14T22:39:47.210Z,12.53
2022-09-14T22:42:17.073Z,13.70
2022-09-14T22:44:46.825Z,12.90
2022-09-14T22:47:16.567Z,12.43
2022-09-14T22:49:46.670Z,13.40
2022-09-14T22:52:16.438Z,13.10
2022-09-14T22:54:46.192Z,13.60
2022-09-14T22:57:15.943Z,13.87
2022-09-14T22:59:46.053Z,13.18
2022-09-14T23:02:15.901Z,13.35
2022-09-14T23:04:47.382Z,12.57
2022-09-14T23:07:18.667Z,13.50
2022-09-14T23:09:48.770Z,13.30
2022-09-14T23:12:18.520Z,12.78
2022-09-14T23:14:48.274Z,12.80
2022-09-14T23:17:18.047Z,13.23
2022-09-14T23:19:47.805Z,11.33
2022-09-14T23:22:17.628Z,12.47
2022-09-14T23:24:47.748Z,13.38
2022-09-14T23:27:17.491Z,12.83
2022-09-14T23:29:47.312Z,12.77
2022-09-14T23:32:17.070Z,12.28
2022-09-14T23:34:47.899Z,13.03
2022-09-14T23:37:17.697Z,12.53
2022-09-14T23:39:47.771Z,12.70
2022-09-14T23:42:17.434Z,12.57
2022-09-14T23:44:47.203Z,13.23
2022-09-14T23:47:18.166Z,11.03
2022-09-14T23:49:47.926Z,13.63
2022-09-14T23:52:17.502Z,13.60
2022-09-14T23:54:47.555Z,13.05
2022-09-14T23:57:17.676Z,13.18
2022-09-14T23:59:47.786Z,12.47
